Fort Pillow, Tennessee
Current Conditions -  °F | °C
As of 6:53 AM on Thursday 23 Oct 2014 (Local Time) from KHKA Reporting Station
Clear Clear  
Wind Chill: 38°   Ceiling: Unl
Heat Index: 41°   Visibility: 10mi
Dew Point: 39°   Wind: 5mph
Humidity: 93%   Direction: 350°N
Pressure: 30.21"   Gusts: NA
Location:  35.7162°N, 89.6967°W
Report Text: KHKA 231153Z AUTO 35004KT 10SM CLR 05/04 A3021 RMK AO2 SLP229 T00500039 10078 20039 53007
Loading
Personal Weather Stations






























Interactive Weather Map
Tropical Storm Tracking
New forecast layout! Learn more

10-Day Weather Forecast

Advertisements
Track Severe Weather on mobile